Elkton, Kentucky
Current Conditions -  °F | °C
As of 7:52 PM on Friday 21 Nov 2014 (Local Time) from KCKV Reporting Station
Overcast Overcast  
Wind Chill: 44°   Ceiling: 6500
Heat Index: 47°   Visibility: 10mi
Dew Point: 22°   Wind: 6mph
Humidity: 37%   Direction: 130°SE
Pressure: 30.36"   Gusts: NA
Location:  36.81°N, 87.15°W
Report Text: KCKV 220152Z AUTO 13005KT 10SM FEW046 OVC065 08/M06 A3036 RMK AO2 SLP283 T00831056
Loading
Personal Weather Stations






























Interactive Weather Map New forecast layout! Learn more

10-Day Weather Forecast

Advertisements
Track Severe Weather on mobile